createdAt,value
2022-12-17T00:01:51.285Z,-0.59
2022-12-17T00:04:37.809Z,-0.64
2022-12-17T00:07:23.592Z,-0.68
2022-12-17T00:10:09.544Z,-0.72
2022-12-17T00:12:56.294Z,-0.70
2022-12-17T00:15:42.833Z,-0.72
2022-12-17T00:18:29.767Z,-0.70
2022-12-17T00:21:19.218Z,-0.71
2022-12-17T00:24:06.034Z,-0.68
2022-12-17T00:26:52.087Z,-0.67
2022-12-17T00:29:37.929Z,-0.65
2022-12-17T00:32:24.271Z,-0.64
2022-12-17T00:35:10.569Z,-0.61
2022-12-17T00:37:57.763Z,-0.63
2022-12-17T00:40:43.553Z,-0.60
2022-12-17T00:43:32.714Z,-0.60
2022-12-17T00:46:19.679Z,-0.60
2022-12-17T00:49:07.190Z,-0.60
2022-12-17T00:51:53.806Z,-0.60
2022-12-17T00:54:39.784Z,-0.57
2022-12-17T00:57:25.718Z,-0.56
2022-12-17T01:00:13.165Z,-0.56
2022-12-17T01:02:59.255Z,-0.55
2022-12-17T01:05:45.395Z,-0.53
2022-12-17T01:08:33.667Z,-0.53
2022-12-17T01:11:26.209Z,-0.53
2022-12-17T01:14:13.081Z,-0.52
2022-12-17T01:17:00.296Z,-0.53
2022-12-17T01:19:47.299Z,-0.51
2022-12-17T01:22:33.150Z,-0.50
2022-12-17T01:25:19.027Z,-0.48
2022-12-17T01:28:09.461Z,-0.49
2022-12-17T01:30:56.465Z,-0.47
2022-12-17T01:33:43.206Z,-0.45
2022-12-17T01:36:28.991Z,-0.46
2022-12-17T01:39:15.332Z,-0.44
2022-12-17T01:42:01.181Z,-0.46
2022-12-17T01:45:14.566Z,-0.48
2022-12-17T01:48:09.518Z,-0.51
2022-12-17T01:51:00.700Z,-0.48
2022-12-17T01:54:10.847Z,-0.49
2022-12-17T01:57:00.399Z,-0.49
2022-12-17T02:00:09.493Z,-0.46
2022-12-17T02:03:02.024Z,-0.48
2022-12-17T02:06:08.456Z,-0.51
2022-12-17T02:09:36.242Z,-0.49
2022-12-17T02:12:49.835Z,-0.52
2022-12-17T02:15:49.276Z,-0.55
2022-12-17T02:18:46.374Z,-0.52
2022-12-17T02:21:32.588Z,-0.52
2022-12-17T02:24:58.407Z,-0.57
2022-12-17T02:27:45.786Z,-0.58
2022-12-17T02:30:33.158Z,-0.57
2022-12-17T02:33:19.883Z,-0.60
2022-12-17T02:36:21.510Z,-0.62
2022-12-17T02:39:07.476Z,-0.63
2022-12-17T02:42:08.943Z,-0.69
2022-12-17T02:44:59.013Z,-0.65
2022-12-17T02:47:47.018Z,-0.66
2022-12-17T02:50:33.417Z,-0.69
2022-12-17T02:53:21.137Z,-0.70
2022-12-17T02:56:07.590Z,-0.72
2022-12-17T02:58:56.501Z,-0.74
2022-12-17T03:01:42.563Z,-0.76
2022-12-17T03:04:28.569Z,-0.81
2022-12-17T03:07:14.482Z,-0.84
2022-12-17T03:10:01.523Z,-0.87
2022-12-17T03:12:49.298Z,-0.87
2022-12-17T03:15:35.247Z,-0.90
2022-12-17T03:18:21.336Z,-0.91
2022-12-17T03:21:11.204Z,-0.92
2022-12-17T03:23:57.558Z,-0.92
2022-12-17T03:26:43.565Z,-0.92
2022-12-17T03:29:29.702Z,-0.94
2022-12-17T03:32:15.758Z,-0.94
2022-12-17T03:35:01.474Z,-0.92
2022-12-17T03:37:47.387Z,-0.90
2022-12-17T03:40:33.335Z,-0.92
2022-12-17T03:43:25.955Z,-0.91
2022-12-17T03:46:14.791Z,-0.93
2022-12-17T03:49:00.724Z,-0.89
2022-12-17T03:51:46.600Z,-0.92
2022-12-17T03:54:32.403Z,-0.91
2022-12-17T03:57:18.455Z,-0.91
2022-12-17T04:00:04.477Z,-0.89
2022-12-17T04:02:58.282Z,-0.90
2022-12-17T04:05:44.418Z,-0.90
2022-12-17T04:08:30.120Z,-0.91
2022-12-17T04:11:16.048Z,-0.92
2022-12-17T04:14:01.825Z,-0.89
2022-12-17T04:16:48.408Z,-0.90
2022-12-17T04:19:34.184Z,-0.89
2022-12-17T04:22:20.011Z,-0.91
2022-12-17T04:25:05.936Z,-0.92
2022-12-17T04:27:51.676Z,-0.92
2022-12-17T04:30:37.455Z,-0.92
2022-12-17T04:33:23.537Z,-0.91
2022-12-17T04:36:09.318Z,-0.91
2022-12-17T04:38:55.407Z,-0.89
2022-12-17T04:41:41.160Z,-0.88
2022-12-17T04:44:27.099Z,-0.87
2022-12-17T04:47:13.268Z,-0.88
2022-12-17T04:49:59.084Z,-0.89
2022-12-17T04:52:45.570Z,-0.88
2022-12-17T04:55:31.435Z,-0.88
2022-12-17T04:58:24.874Z,-0.86
2022-12-17T05:01:11.702Z,-0.88
2022-12-17T05:03:58.335Z,-0.91
2022-12-17T05:06:45.249Z,-0.95
2022-12-17T05:09:31.409Z,-1.02
2022-12-17T05:12:17.343Z,-1.06
2022-12-17T05:15:03.239Z,-1.11
2022-12-17T05:17:49.025Z,-1.16
2022-12-17T05:20:34.923Z,-1.19
2022-12-17T05:23:26.104Z,-1.21
2022-12-17T05:26:25.810Z,-1.21
2022-12-17T05:29:22.294Z,-1.22
2022-12-17T05:32:08.878Z,-1.22
2022-12-17T05:34:54.736Z,-1.21
2022-12-17T05:37:43.335Z,-1.23
2022-12-17T05:40:29.967Z,-1.25
2022-12-17T05:43:29.900Z,-1.30
2022-12-17T05:46:18.923Z,-1.31
2022-12-17T05:49:04.707Z,-1.32
2022-12-17T05:51:50.603Z,-1.33
2022-12-17T05:54:36.582Z,-1.34
2022-12-17T05:57:23.443Z,-1.34
2022-12-17T06:00:09.392Z,-1.40
2022-12-17T06:02:58.575Z,-1.42
2022-12-17T06:05:44.920Z,-1.42
2022-12-17T06:08:30.795Z,-1.40
2022-12-17T06:11:19.823Z,-1.38
2022-12-17T06:14:06.093Z,-1.40
2022-12-17T06:16:52.140Z,-1.41
2022-12-17T06:19:37.908Z,-1.43
2022-12-17T06:22:23.738Z,-1.45
2022-12-17T06:25:09.629Z,-1.42
2022-12-17T06:27:55.780Z,-1.45
2022-12-17T06:30:41.561Z,-1.46
2022-12-17T06:33:29.747Z,-1.43
2022-12-17T06:36:22.121Z,-1.42
2022-12-17T06:39:09.349Z,-1.42
2022-12-17T06:42:02.019Z,-1.42
2022-12-17T06:44:50.915Z,-1.42
2022-12-17T06:47:51.100Z,-1.43
2022-12-17T06:50:37.321Z,-1.41
2022-12-17T06:53:25.639Z,-1.41
2022-12-17T06:56:15.310Z,-1.44
2022-12-17T06:59:01.317Z,-1.42
2022-12-17T07:01:48.045Z,-1.40
2022-12-17T07:04:33.991Z,-1.38
2022-12-17T07:07:19.829Z,-1.39
2022-12-17T07:10:09.342Z,-1.38
2022-12-17T07:12:59.555Z,-1.40
2022-12-17T07:15:45.437Z,-1.41
2022-12-17T07:18:32.296Z,-1.40
2022-12-17T07:21:18.054Z,-1.40
2022-12-17T07:24:03.957Z,-1.41
2022-12-17T07:26:50.445Z,-1.44
2022-12-17T07:29:36.267Z,-1.48
2022-12-17T07:32:22.167Z,-1.51
2022-12-17T07:35:08.237Z,-1.49
2022-12-17T07:37:53.936Z,-1.44
2022-12-17T07:40:39.801Z,-1.46
2022-12-17T07:43:30.800Z,-1.46
2022-12-17T07:46:18.147Z,-1.46
2022-12-17T07:49:04.335Z,-1.47
2022-12-17T07:51:50.443Z,-1.47
2022-12-17T07:54:36.159Z,-1.47
2022-12-17T07:57:22.087Z,-1.49
2022-12-17T08:00:07.819Z,-1.50
2022-12-17T08:02:53.892Z,-1.48
2022-12-17T08:05:41.121Z,-1.43
2022-12-17T08:08:29.812Z,-1.46
2022-12-17T08:11:15.623Z,-1.45
2022-12-17T08:14:02.054Z,-1.42
2022-12-17T08:16:47.923Z,-1.40
2022-12-17T08:19:34.342Z,-1.37
2022-12-17T08:22:20.195Z,-1.33
2022-12-17T08:25:05.992Z,-1.36
2022-12-17T08:27:52.252Z,-1.37
2022-12-17T08:30:38.307Z,-1.40
2022-12-17T08:33:26.132Z,-1.40
2022-12-17T08:36:13.530Z,-1.36
2022-12-17T08:39:16.769Z,-1.40
2022-12-17T08:42:07.477Z,-1.44
2022-12-17T08:44:53.656Z,-1.39
2022-12-17T08:47:39.561Z,-1.37
2022-12-17T08:50:26.542Z,-1.35
2022-12-17T08:53:23.035Z,-1.35
2022-12-17T08:56:09.317Z,-1.39
2022-12-17T08:58:59.084Z,-1.39
2022-12-17T09:01:45.690Z,-1.40
2022-12-17T09:04:31.676Z,-1.42
2022-12-17T09:07:18.521Z,-1.42
2022-12-17T09:10:06.209Z,-1.43
2022-12-17T09:12:52.298Z,-1.44
2022-12-17T09:15:38.171Z,-1.48
2022-12-17T09:18:23.922Z,-1.51
2022-12-17T09:21:13.809Z,-1.53
2022-12-17T09:24:00.173Z,-1.53
2022-12-17T09:26:46.581Z,-1.46
2022-12-17T09:29:32.407Z,-1.46
2022-12-17T09:32:18.521Z,-1.48
2022-12-17T09:35:04.433Z,-1.53
2022-12-17T09:37:50.522Z,-1.56
2022-12-17T09:40:41.876Z,-1.55
2022-12-17T09:43:47.703Z,-1.54
2022-12-17T09:47:10.934Z,-1.57
2022-12-17T09:49:57.630Z,-1.60
2022-12-17T09:52:47.737Z,-1.58
2022-12-17T09:56:02.766Z,-1.55
2022-12-17T09:58:49.457Z,-1.51
2022-12-17T10:02:01.895Z,-1.51
2022-12-17T10:04:56.533Z,-1.52
2022-12-17T10:07:52.606Z,-1.49
2022-12-17T10:10:49.773Z,-1.47
2022-12-17T10:13:40.363Z,-1.47
2022-12-17T10:16:51.863Z,-1.46
2022-12-17T10:19:54.413Z,-1.42
2022-12-17T10:22:40.861Z,-1.45
2022-12-17T10:25:40.473Z,-1.45
2022-12-17T10:28:35.817Z,-1.43
2022-12-17T10:31:39.815Z,-1.37
2022-12-17T10:34:31.471Z,-1.34
2022-12-17T10:37:17.355Z,-1.30
2022-12-17T10:40:12.288Z,-1.28
2022-12-17T10:42:59.525Z,-1.27
2022-12-17T10:46:11.410Z,-1.28
2022-12-17T10:48:57.193Z,-1.28
2022-12-17T10:51:55.393Z,-1.26
2022-12-17T10:54:49.406Z,-1.23
2022-12-17T10:57:56.510Z,-1.25
2022-12-17T11:00:52.506Z,-1.29
2022-12-17T11:04:14.439Z,-1.32
2022-12-17T11:07:05.409Z,-1.31
2022-12-17T11:10:08.655Z,-1.30
2022-12-17T11:13:15.887Z,-1.29
2022-12-17T11:16:14.082Z,-1.33
2022-12-17T11:19:30.346Z,-1.34
2022-12-17T11:22:26.077Z,-1.32
2022-12-17T11:25:26.504Z,-1.30
2022-12-17T11:28:38.367Z,-1.30
2022-12-17T11:32:12.159Z,-1.30
2022-12-17T11:35:52.451Z,-1.26
2022-12-17T11:39:01.329Z,-1.19
2022-12-17T11:42:14.358Z,-1.16
2022-12-17T11:45:17.995Z,-1.13
2022-12-17T11:48:25.528Z,-1.08
2022-12-17T11:51:33.227Z,-1.08
2022-12-17T11:54:43.036Z,-1.08
2022-12-17T11:57:38.698Z,-1.10
2022-12-17T12:00:42.331Z,-1.15
2022-12-17T12:03:55.869Z,-1.17
2022-12-17T12:06:46.865Z,-1.17
2022-12-17T12:10:19.473Z,-1.22
2022-12-17T12:13:44.541Z,-1.18
2022-12-17T12:17:12.342Z,-1.18
2022-12-17T12:20:41.163Z,-1.19
2022-12-17T12:23:55.443Z,-1.17
2022-12-17T12:26:56.578Z,-1.14
2022-12-17T12:30:26.696Z,-1.12
2022-12-17T12:33:41.581Z,-1.06
2022-12-17T12:36:31.013Z,-1.05
2022-12-17T12:39:17.830Z,-1.05
2022-12-17T12:42:16.839Z,-1.06
2022-12-17T12:45:25.396Z,-1.08
2022-12-17T12:48:58.141Z,-1.09
2022-12-17T12:51:49.206Z,-1.08
2022-12-17T12:55:05.046Z,-1.07
2022-12-17T12:57:51.162Z,-1.06
2022-12-17T13:01:07.702Z,-1.04
2022-12-17T13:04:11.063Z,-1.10
2022-12-17T13:06:56.369Z,-1.16
2022-12-17T13:09:34.813Z,-1.19
2022-12-17T13:12:02.861Z,-1.22
2022-12-17T13:14:33.721Z,-1.28
2022-12-17T13:17:04.075Z,-1.23
2022-12-17T13:19:31.414Z,-1.27
2022-12-17T13:22:23.979Z,-1.29
2022-12-17T13:24:55.506Z,-1.28
2022-12-17T13:27:36.339Z,-1.27
2022-12-17T13:30:18.104Z,-1.29
2022-12-17T13:33:02.206Z,-1.36
2022-12-17T13:36:06.134Z,-1.37
2022-12-17T13:39:13.774Z,-1.37
2022-12-17T13:41:41.379Z,-1.41
2022-12-17T13:44:29.635Z,-1.45
2022-12-17T13:46:57.177Z,-1.46
2022-12-17T13:49:30.203Z,-1.45
2022-12-17T13:52:23.797Z,-1.41
2022-12-17T13:54:51.779Z,-1.41
2022-12-17T13:57:25.911Z,-1.42
2022-12-17T13:59:56.775Z,-1.43
2022-12-17T14:02:29.489Z,-1.44
2022-12-17T14:05:05.663Z,-1.51
2022-12-17T14:07:39.057Z,-1.46
2022-12-17T14:10:18.140Z,-1.47
2022-12-17T14:12:47.092Z,-1.45
2022-12-17T14:15:29.984Z,-1.47
2022-12-17T14:17:59.235Z,-1.49
2022-12-17T14:20:36.178Z,-1.52
2022-12-17T14:23:23.105Z,-1.54
2022-12-17T14:25:50.851Z,-1.61
2022-12-17T14:28:37.446Z,-1.66
2022-12-17T14:31:28.691Z,-1.71
2022-12-17T14:34:10.916Z,-1.73
2022-12-17T14:36:43.780Z,-1.73
2022-12-17T14:39:30.918Z,-1.70
2022-12-17T14:42:27.001Z,-1.69
2022-12-17T14:45:06.290Z,-1.72
2022-12-17T14:47:36.687Z,-1.80
2022-12-17T14:50:07.426Z,-1.89
2022-12-17T14:52:53.100Z,-1.97
2022-12-17T14:55:37.971Z,-1.99
2022-12-17T14:58:13.898Z,-2.01
2022-12-17T15:00:59.919Z,-2.06
2022-12-17T15:03:31.735Z,-2.04
2022-12-17T15:06:03.360Z,-1.98
2022-12-17T15:08:34.862Z,-1.99
2022-12-17T15:11:03.032Z,-1.99
2022-12-17T15:13:30.411Z,-1.99
2022-12-17T15:15:58.207Z,-2.03
2022-12-17T15:18:26.083Z,-2.04
2022-12-17T15:20:53.627Z,-2.06
2022-12-17T15:23:23.900Z,-2.13
2022-12-17T15:25:52.853Z,-2.18
2022-12-17T15:28:22.025Z,-2.21
2022-12-17T15:30:50.128Z,-2.25
2022-12-17T15:33:18.012Z,-2.31
2022-12-17T15:35:45.560Z,-2.36
2022-12-17T15:38:13.294Z,-2.42
2022-12-17T15:40:41.454Z,-2.46
2022-12-17T15:43:13.085Z,-2.52
2022-12-17T15:45:45.623Z,-2.56
2022-12-17T15:48:16.015Z,-2.60
2022-12-17T15:50:43.442Z,-2.63
2022-12-17T15:53:11.047Z,-2.67
2022-12-17T15:55:39.183Z,-2.67
2022-12-17T15:58:07.624Z,-2.68
2022-12-17T16:00:35.402Z,-2.67
2022-12-17T16:03:04.359Z,-2.67
2022-12-17T16:05:32.107Z,-2.69
2022-12-17T16:08:02.496Z,-2.70
2022-12-17T16:10:30.648Z,-2.73
2022-12-17T16:12:58.421Z,-2.75
2022-12-17T16:15:25.909Z,-2.75
2022-12-17T16:17:53.421Z,-2.73
2022-12-17T16:20:22.486Z,-2.73
2022-12-17T16:22:50.226Z,-2.74
2022-12-17T16:25:17.717Z,-2.75
2022-12-17T16:27:45.406Z,-2.79
2022-12-17T16:30:13.568Z,-2.79
2022-12-17T16:32:41.031Z,-2.78
2022-12-17T16:35:08.819Z,-2.80
2022-12-17T16:37:36.215Z,-2.75
2022-12-17T16:40:04.027Z,-2.74
2022-12-17T16:42:31.451Z,-2.73
2022-12-17T16:44:58.932Z,-2.69
2022-12-17T16:47:26.485Z,-2.69
2022-12-17T16:49:53.959Z,-2.68
2022-12-17T16:52:21.417Z,-2.69
2022-12-17T16:54:48.842Z,-2.69
2022-12-17T16:57:16.247Z,-2.68
2022-12-17T16:59:43.679Z,-2.73
2022-12-17T17:02:15.801Z,-2.77
2022-12-17T17:04:43.375Z,-2.81
2022-12-17T17:07:10.772Z,-2.79
2022-12-17T17:09:38.958Z,-2.79
2022-12-17T17:12:08.943Z,-2.79
2022-12-17T17:14:36.419Z,-2.80
2022-12-17T17:17:03.904Z,-2.82
2022-12-17T17:19:31.305Z,-2.81
2022-12-17T17:21:58.783Z,-2.82
2022-12-17T17:24:26.585Z,-2.85
2022-12-17T17:26:55.325Z,-2.90
2022-12-17T17:29:23.103Z,-2.90
2022-12-17T17:32:09.960Z,-2.96
2022-12-17T17:34:39.128Z,-2.99
2022-12-17T17:37:06.541Z,-2.99
2022-12-17T17:39:34.352Z,-3.00
2022-12-17T17:42:02.233Z,-2.97
2022-12-17T17:44:29.687Z,-2.92
2022-12-17T17:46:57.366Z,-2.92
2022-12-17T17:49:25.231Z,-2.96
2022-12-17T17:52:08.820Z,-2.97
2022-12-17T17:54:36.813Z,-2.99
2022-12-17T17:57:04.222Z,-3.00
2022-12-17T17:59:34.169Z,-3.06
2022-12-17T18:02:03.308Z,-3.11
2022-12-17T18:04:31.543Z,-3.14
2022-12-17T18:09:46.590Z,-3.20
2022-12-17T18:12:32.676Z,-3.19
2022-12-17T18:15:17.349Z,-3.24
2022-12-17T18:17:49.212Z,-3.26
2022-12-17T18:20:16.987Z,-3.31
2022-12-17T18:22:46.275Z,-3.32
2022-12-17T18:25:15.298Z,-3.36
2022-12-17T18:27:44.055Z,-3.37
2022-12-17T18:30:13.066Z,-3.33
2022-12-17T18:32:41.831Z,-3.31
2022-12-17T18:35:09.607Z,-3.29
2022-12-17T18:37:37.488Z,-3.29
2022-12-17T18:40:07.081Z,-3.29
2022-12-17T18:42:53.551Z,-3.31
2022-12-17T18:45:20.973Z,-3.34
2022-12-17T18:47:48.417Z,-3.32
2022-12-17T18:50:15.856Z,-3.30
2022-12-17T18:52:43.338Z,-3.32
2022-12-17T18:55:11.439Z,-3.39
2022-12-17T18:57:38.951Z,-3.48
2022-12-17T19:00:07.085Z,-3.50
2022-12-17T19:02:34.634Z,-3.50
2022-12-17T19:05:02.113Z,-3.50
2022-12-17T19:07:29.599Z,-3.58
2022-12-17T19:09:57.039Z,-3.63
2022-12-17T19:12:24.466Z,-3.71
2022-12-17T19:14:51.820Z,-3.75
2022-12-17T19:17:19.231Z,-3.77
2022-12-17T19:19:47.808Z,-3.79
2022-12-17T19:22:15.162Z,-3.79
2022-12-17T19:24:42.620Z,-3.78
2022-12-17T19:27:10.029Z,-3.75
2022-12-17T19:29:37.488Z,-3.80
2022-12-17T19:32:05.081Z,-3.90
2022-12-17T19:34:35.002Z,-3.99
2022-12-17T19:37:03.189Z,-4.10
2022-12-17T19:39:30.593Z,-4.18
2022-12-17T19:41:57.969Z,-4.24
2022-12-17T19:44:25.508Z,-4.27
2022-12-17T19:46:52.911Z,-4.26
2022-12-17T19:49:20.283Z,-4.22
2022-12-17T19:51:47.689Z,-4.21
2022-12-17T19:54:15.602Z,-4.24
2022-12-17T19:56:44.713Z,-4.26
2022-12-17T19:59:13.932Z,-4.31
2022-12-17T20:01:45.626Z,-4.35
2022-12-17T20:04:15.870Z,-4.37
2022-12-17T20:06:44.643Z,-4.41
2022-12-17T20:09:12.521Z,-4.37
2022-12-17T20:11:40.475Z,-4.35
2022-12-17T20:14:36.110Z,-4.31
2022-12-17T20:17:05.059Z,-4.30
2022-12-17T20:19:34.640Z,-4.32
2022-12-17T20:22:04.501Z,-4.34
2022-12-17T20:24:32.673Z,-4.30
2022-12-17T20:27:00.993Z,-4.33
2022-12-17T20:29:29.162Z,-4.35
2022-12-17T20:31:56.896Z,-4.37
2022-12-17T20:34:25.268Z,-4.38
2022-12-17T20:36:53.896Z,-4.38
2022-12-17T20:39:26.646Z,-4.37
2022-12-17T20:41:55.143Z,-4.34
2022-12-17T20:44:22.572Z,-4.31
2022-12-17T20:46:49.958Z,-4.28
2022-12-17T20:49:17.439Z,-4.23
2022-12-17T20:51:44.884Z,-4.23
2022-12-17T20:54:12.541Z,-4.18
2022-12-17T20:56:40.715Z,-4.18
2022-12-17T20:59:13.161Z,-4.21
2022-12-17T21:01:40.804Z,-4.24
2022-12-17T21:04:08.631Z,-4.25
2022-12-17T21:06:45.820Z,-4.25
2022-12-17T21:09:13.838Z,-4.33
2022-12-17T21:11:42.451Z,-4.37
2022-12-17T21:14:14.160Z,-4.38
2022-12-17T21:16:43.195Z,-4.39
2022-12-17T21:19:14.551Z,-4.38
2022-12-17T21:21:42.013Z,-4.36
2022-12-17T21:24:09.871Z,-4.35
2022-12-17T21:26:40.908Z,-4.34
2022-12-17T21:29:11.221Z,-4.36
2022-12-17T21:31:48.471Z,-4.38
2022-12-17T21:34:22.052Z,-4.37
2022-12-17T21:36:50.582Z,-4.36
2022-12-17T21:39:18.929Z,-4.37
2022-12-17T21:42:06.319Z,-4.39
2022-12-17T21:44:34.001Z,-4.44
2022-12-17T21:47:02.275Z,-4.46
2022-12-17T21:49:30.016Z,-4.46
2022-12-17T21:51:59.366Z,-4.44
2022-12-17T21:54:26.993Z,-4.42
2022-12-17T21:56:54.654Z,-4.43
2022-12-17T21:59:22.444Z,-4.47
2022-12-17T22:01:50.900Z,-4.49
2022-12-17T22:04:18.655Z,-4.53
2022-12-17T22:06:55.006Z,-4.56
2022-12-17T22:09:33.977Z,-4.60
2022-12-17T22:12:34.564Z,-4.60
2022-12-17T22:15:02.050Z,-4.64
2022-12-17T22:17:29.916Z,-4.71
2022-12-17T22:19:57.318Z,-4.74
2022-12-17T22:22:24.790Z,-4.81
2022-12-17T22:24:52.224Z,-4.87
2022-12-17T22:27:19.662Z,-4.91
2022-12-17T22:30:05.499Z,-4.93
2022-12-17T22:32:51.399Z,-4.94
2022-12-17T22:36:09.240Z,-4.96
2022-12-17T22:42:19.615Z,-4.98
2022-12-17T22:44:35.299Z,-5.02
2022-12-17T22:44:36.805Z,-5.06
2022-12-17T22:46:31.694Z,-5.13
2022-12-17T22:48:59.324Z,-5.16
2022-12-17T22:51:37.908Z,-5.19
2022-12-17T22:54:08.342Z,-5.22
2022-12-17T22:56:51.132Z,-5.26
2022-12-17T22:59:25.722Z,-5.26
2022-12-17T23:01:53.219Z,-5.30
2022-12-17T23:04:22.150Z,-5.32
2022-12-17T23:06:49.650Z,-5.37
2022-12-17T23:09:19.419Z,-5.38
2022-12-17T23:11:48.572Z,-5.43
2022-12-17T23:14:17.169Z,-5.46
2022-12-17T23:16:45.356Z,-5.48
2022-12-17T23:19:13.422Z,-5.49
2022-12-17T23:21:40.875Z,-5.50
2022-12-17T23:24:08.720Z,-5.52
2022-12-17T23:26:37.775Z,-5.54
2022-12-17T23:29:08.669Z,-5.59
2022-12-17T23:31:40.265Z,-5.63
2022-12-17T23:34:08.184Z,-5.66
2022-12-17T23:36:36.393Z,-5.69
2022-12-17T23:39:04.374Z,-5.71
2022-12-17T23:41:32.379Z,-5.72
2022-12-17T23:44:00.335Z,-5.76
2022-12-17T23:46:30.096Z,-5.76
2022-12-17T23:48:57.909Z,-5.79
2022-12-17T23:51:26.106Z,-5.81
2022-12-17T23:53:54.047Z,-5.83
2022-12-17T23:56:26.574Z,-5.83
2022-12-17T23:59:01.483Z,-5.83
